CheckWX is a tool to help pilots better visualize weather data.  It is not intended as a substitute for an official pre-flight weather briefing.

03:32:57 UTC

GQPP METAR
Nouadhibou International Airport Airport
Nouadhibou, Mauritania
Current

33 mins ago

GQPP 110300Z 01015KT 7000 NSC 20/18 Q1008 NOSIG
Observed
Jul-11 @ 03:00 UTC
Wind
  • 010° at 15 KTS
Visibility
7001 meters
Flight Rules
MVFR
Cloud Levels
  • Clear skies
Temperature
20°C / 68°F
Dewpoint
18°C / 64°F
Humidity
88%
Altimeter
29.76" Hg
Pressure
1007.92 hPa
Previous

2 hours ago

GQPP 110200Z 01016KT 7000 DRSA NSC 21/18 Q1008 NOSIG
Observed
Jul-11 @ 02:00 UTC
Wind
  • 010° at 16 KTS
Visibility
7001 meters
Flight Rules
MVFR
Conditions
Low drifting Sand
Cloud Levels
  • Clear skies
Temperature
21°C / 70°F
Dewpoint
18°C / 64°F
Humidity
83%
Altimeter
29.76" Hg
Pressure
1007.92 hPa
Previous

3 hours ago

GQPP 110100Z 01015KT 7000 NSC 21/18 Q1008 NOSIG
Observed
Jul-11 @ 01:00 UTC
Wind
  • 010° at 15 KTS
Visibility
7001 meters
Flight Rules
MVFR
Cloud Levels
  • Clear skies
Temperature
21°C / 70°F
Dewpoint
18°C / 64°F
Humidity
83%
Altimeter
29.76" Hg
Pressure
1007.92 hPa